createdAt,value
2023-11-04T00:01:16.178Z,1.40
2023-11-04T00:03:49.090Z,1.63
2023-11-04T00:06:16.498Z,1.40
2023-11-04T00:08:43.682Z,1.30
2023-11-04T00:11:10.772Z,1.50
2023-11-04T00:13:37.893Z,1.50
2023-11-04T00:16:09.766Z,1.80
2023-11-04T00:18:37.812Z,1.50
2023-11-04T00:21:05.302Z,1.50
2023-11-04T00:23:32.489Z,1.50
2023-11-04T00:25:59.584Z,1.30
2023-11-04T00:28:26.680Z,1.40
2023-11-04T00:30:53.995Z,1.53
2023-11-04T00:33:21.290Z,1.60
2023-11-04T00:35:48.520Z,1.50
2023-11-04T00:38:15.591Z,1.60
2023-11-04T00:40:45.477Z,1.67
2023-11-04T00:43:13.407Z,1.40
2023-11-04T00:45:40.644Z,1.30
2023-11-04T00:48:07.826Z,1.60
2023-11-04T00:50:34.955Z,1.47
2023-11-04T00:53:02.187Z,1.60
2023-11-04T00:55:29.297Z,1.33
2023-11-04T00:57:56.684Z,1.40
2023-11-04T01:00:27.892Z,1.10
2023-11-04T01:02:56.697Z,1.30
2023-11-04T01:05:24.678Z,1.30
2023-11-04T01:07:52.009Z,1.30
2023-11-04T01:10:19.262Z,1.20
2023-11-04T01:12:46.752Z,1.23
2023-11-04T01:15:14.013Z,1.30
2023-11-04T01:17:41.284Z,0.97
2023-11-04T01:20:09.400Z,1.20
2023-11-04T01:22:36.821Z,1.47
2023-11-04T01:25:04.172Z,1.23
2023-11-04T01:27:31.323Z,1.00
2023-11-04T01:29:58.423Z,0.97
2023-11-04T01:32:25.588Z,1.30
2023-11-04T01:34:52.847Z,1.30
2023-11-04T01:37:20.472Z,1.20
2023-11-04T01:39:47.933Z,1.10
2023-11-04T01:42:15.226Z,1.27
2023-11-04T01:44:42.436Z,1.00
2023-11-04T01:47:09.614Z,1.00
2023-11-04T01:49:37.592Z,1.13
2023-11-04T01:52:05.223Z,1.30
2023-11-04T01:54:32.651Z,1.33
2023-11-04T01:57:00.330Z,1.20
2023-11-04T01:59:28.524Z,1.20
2023-11-04T02:01:55.618Z,1.10
2023-11-04T02:04:22.857Z,1.17
2023-11-04T02:06:50.199Z,1.10
2023-11-04T02:09:17.863Z,1.10
2023-11-04T02:11:45.042Z,1.00
2023-11-04T02:14:13.286Z,1.10
2023-11-04T02:16:40.587Z,1.10
2023-11-04T02:19:07.748Z,1.00
2023-11-04T02:21:34.927Z,1.10
2023-11-04T02:24:02.158Z,1.17
2023-11-04T02:26:29.423Z,1.07
2023-11-04T02:28:57.384Z,1.10
2023-11-04T02:31:24.821Z,1.20
2023-11-04T02:33:51.970Z,1.13
2023-11-04T02:36:19.236Z,1.30
2023-11-04T02:38:46.365Z,0.90
2023-11-04T02:41:13.463Z,1.00
2023-11-04T02:43:40.759Z,0.97
2023-11-04T02:46:07.845Z,1.00
2023-11-04T02:48:35.090Z,1.13
2023-11-04T02:51:02.322Z,1.10
2023-11-04T02:53:29.416Z,0.80
2023-11-04T02:55:56.505Z,1.07
2023-11-04T02:58:23.640Z,1.00
2023-11-04T03:00:50.802Z,1.30
2023-11-04T03:03:18.008Z,0.93
2023-11-04T03:05:45.286Z,1.00
2023-11-04T03:08:12.746Z,1.07
2023-11-04T03:10:40.058Z,0.97
2023-11-04T03:13:07.200Z,1.10
2023-11-04T03:15:34.350Z,0.90
2023-11-04T03:18:03.118Z,1.00
2023-11-04T03:20:30.293Z,0.90
2023-11-04T03:22:57.431Z,0.90
2023-11-04T03:25:24.662Z,0.73
2023-11-04T03:27:51.784Z,0.90
2023-11-04T03:30:19.108Z,1.03
2023-11-04T03:32:46.380Z,0.97
2023-11-04T03:35:13.506Z,1.20
2023-11-04T03:37:40.666Z,0.80
2023-11-04T03:40:08.062Z,1.10
2023-11-04T03:42:37.969Z,0.90
2023-11-04T03:45:07.386Z,1.00
2023-11-04T03:47:34.718Z,1.00
2023-11-04T03:50:01.954Z,0.90
2023-11-04T03:52:29.037Z,0.93
2023-11-04T03:54:56.155Z,0.83
2023-11-04T03:57:23.261Z,0.90
2023-11-04T03:59:50.413Z,0.90
2023-11-04T04:02:17.873Z,1.10
2023-11-04T04:04:44.998Z,0.97
2023-11-04T04:07:12.606Z,1.73
2023-11-04T04:09:40.918Z,1.23
2023-11-04T04:12:08.582Z,0.90
2023-11-04T04:14:35.696Z,1.00
2023-11-04T04:17:02.877Z,1.07
2023-11-04T04:19:30.137Z,1.00
2023-11-04T04:21:57.511Z,0.83
2023-11-04T04:24:24.845Z,0.90
2023-11-04T04:26:51.988Z,0.80
2023-11-04T04:29:24.773Z,1.53
2023-11-04T04:31:55.715Z,0.73
2023-11-04T04:34:22.836Z,0.60
2023-11-04T04:36:50.028Z,1.00
2023-11-04T04:39:18.129Z,1.10
2023-11-04T04:41:45.693Z,1.03
2023-11-04T04:44:12.803Z,0.83
2023-11-04T04:46:40.531Z,0.80
2023-11-04T04:49:08.024Z,0.80
2023-11-04T04:51:36.016Z,0.70
2023-11-04T04:54:03.722Z,1.03
2023-11-04T04:56:31.003Z,0.90
2023-11-04T04:58:58.085Z,0.67
2023-11-04T05:01:25.178Z,1.03
2023-11-04T05:03:52.849Z,0.83
2023-11-04T05:06:20.029Z,0.77
2023-11-04T05:08:47.138Z,0.60
2023-11-04T05:11:14.363Z,0.80
2023-11-04T05:13:41.465Z,0.67
2023-11-04T05:16:08.799Z,0.90
2023-11-04T05:18:35.975Z,0.60
2023-11-04T05:21:03.936Z,1.00
2023-11-04T05:23:32.285Z,0.97
2023-11-04T05:25:59.465Z,0.80
2023-11-04T05:28:27.475Z,0.93
2023-11-04T05:30:54.707Z,0.80
2023-11-04T05:33:21.994Z,0.90
2023-11-04T05:35:49.472Z,0.70
2023-11-04T05:38:18.228Z,0.80
2023-11-04T05:40:45.716Z,0.80
2023-11-04T05:43:12.871Z,0.63
2023-11-04T05:45:40.083Z,0.87
2023-11-04T05:48:07.414Z,0.93
2023-11-04T05:50:34.552Z,0.70
2023-11-04T05:53:01.881Z,0.83
2023-11-04T05:55:29.216Z,0.80
2023-11-04T05:57:56.410Z,0.70
2023-11-04T06:00:24.110Z,0.67
2023-11-04T06:02:51.288Z,0.70
2023-11-04T06:05:18.475Z,0.70
2023-11-04T06:07:45.616Z,1.07
2023-11-04T06:10:13.526Z,0.80
2023-11-04T06:12:40.760Z,0.80
2023-11-04T06:15:08.075Z,0.53
2023-11-04T06:17:35.211Z,0.70
2023-11-04T06:20:02.345Z,0.87
2023-11-04T06:22:29.411Z,1.07
2023-11-04T06:24:56.516Z,0.80
2023-11-04T06:27:23.721Z,1.00
2023-11-04T06:29:50.904Z,1.20
2023-11-04T06:32:18.060Z,1.00
2023-11-04T06:34:45.188Z,1.00
2023-11-04T06:37:12.285Z,1.23
2023-11-04T06:39:39.455Z,1.50
2023-11-04T06:42:06.833Z,1.40
2023-11-04T06:44:36.946Z,1.53
2023-11-04T06:47:04.136Z,1.60
2023-11-04T06:49:31.320Z,1.70
2023-11-04T06:51:58.728Z,2.10
2023-11-04T06:54:25.953Z,2.03
2023-11-04T06:56:55.997Z,1.90
2023-11-04T06:59:23.600Z,2.33
2023-11-04T07:01:51.471Z,2.03
2023-11-04T07:04:18.617Z,2.10
2023-11-04T07:06:45.864Z,2.23
2023-11-04T07:09:13.594Z,2.70
2023-11-04T07:11:40.830Z,2.50
2023-11-04T07:14:09.237Z,2.70
2023-11-04T07:16:36.455Z,2.80
2023-11-04T07:19:03.785Z,3.20
2023-11-04T07:21:31.004Z,3.10
2023-11-04T07:23:58.128Z,3.40
2023-11-04T07:26:25.237Z,3.07
2023-11-04T07:28:52.349Z,2.73
2023-11-04T07:31:19.455Z,3.07
2023-11-04T07:33:46.667Z,2.93
2023-11-04T07:36:14.028Z,3.17
2023-11-04T07:38:41.191Z,3.17
2023-11-04T07:41:08.712Z,2.70
2023-11-04T07:43:35.943Z,3.17
2023-11-04T07:46:03.223Z,3.10
2023-11-04T07:48:30.725Z,2.80
2023-11-04T07:50:58.843Z,3.20
2023-11-04T07:53:25.940Z,2.97
2023-11-04T07:55:53.113Z,2.80
2023-11-04T07:58:22.248Z,2.70
2023-11-04T08:00:50.627Z,2.67
2023-11-04T08:03:19.321Z,2.60
2023-11-04T08:05:47.521Z,2.27
2023-11-04T08:08:15.039Z,2.60
2023-11-04T08:10:42.342Z,2.40
2023-11-04T08:13:09.909Z,2.20
2023-11-04T08:15:39.479Z,2.60
2023-11-04T08:18:06.778Z,1.93
2023-11-04T08:20:33.931Z,2.20
2023-11-04T08:23:01.060Z,2.10
2023-11-04T08:25:28.290Z,2.70
2023-11-04T08:27:55.477Z,2.57
2023-11-04T08:30:22.623Z,2.63
2023-11-04T08:32:49.751Z,2.20
2023-11-04T08:35:17.198Z,2.33
2023-11-04T08:37:44.621Z,2.27
2023-11-04T08:40:11.968Z,2.17
2023-11-04T08:42:39.191Z,2.30
2023-11-04T08:45:12.103Z,2.30
2023-11-04T08:47:40.139Z,2.70
2023-11-04T08:50:07.511Z,2.50
2023-11-04T08:52:34.863Z,2.60
2023-11-04T08:55:05.136Z,2.50
2023-11-04T08:57:33.305Z,2.47
2023-11-04T09:00:01.981Z,2.50
2023-11-04T09:02:29.369Z,2.37
2023-11-04T09:05:02.442Z,2.90
2023-11-04T09:07:34.916Z,2.60
2023-11-04T09:10:02.174Z,2.43
2023-11-04T09:12:29.446Z,2.47
2023-11-04T09:14:57.632Z,2.20
2023-11-04T09:17:25.443Z,2.27
2023-11-04T09:19:52.677Z,2.33
2023-11-04T09:22:19.953Z,1.60
2023-11-04T09:24:47.280Z,1.97
2023-11-04T09:27:14.409Z,1.97
2023-11-04T09:29:41.599Z,2.00
2023-11-04T09:32:08.766Z,2.10
2023-11-04T09:34:36.010Z,2.10
2023-11-04T09:37:04.720Z,1.93
2023-11-04T09:39:31.913Z,1.83
2023-11-04T09:42:00.081Z,1.77
2023-11-04T09:44:27.288Z,1.87
2023-11-04T09:46:54.479Z,1.93
2023-11-04T09:49:21.806Z,1.70
2023-11-04T09:51:51.027Z,1.70
2023-11-04T09:54:18.381Z,1.70
2023-11-04T09:56:45.546Z,1.70
2023-11-04T09:59:12.697Z,1.50
2023-11-04T10:01:41.402Z,1.70
2023-11-04T10:04:08.694Z,1.40
2023-11-04T10:06:35.957Z,1.40
2023-11-04T10:09:03.328Z,1.20
2023-11-04T10:11:30.508Z,1.60
2023-11-04T10:13:57.853Z,1.33
2023-11-04T10:16:25.046Z,1.50
2023-11-04T10:18:52.305Z,1.30
2023-11-04T10:21:19.501Z,1.40
2023-11-04T10:23:46.655Z,1.40
2023-11-04T10:26:15.968Z,1.40
2023-11-04T10:28:43.140Z,1.13
2023-11-04T10:31:12.422Z,1.40
2023-11-04T10:33:39.967Z,1.70
2023-11-04T10:36:09.149Z,1.30
2023-11-04T10:38:37.936Z,1.40
2023-11-04T10:41:06.939Z,1.70
2023-11-04T10:43:53.035Z,1.70
2023-11-04T10:46:25.777Z,1.50
2023-11-04T10:48:58.818Z,1.90
2023-11-04T10:51:26.469Z,1.90
2023-11-04T10:54:02.604Z,1.70
2023-11-04T10:56:35.414Z,2.20
2023-11-04T10:59:22.141Z,2.10
2023-11-04T11:01:49.804Z,2.10
2023-11-04T11:04:17.767Z,2.20
2023-11-04T11:06:46.256Z,2.10
2023-11-04T11:09:14.489Z,1.93
2023-11-04T11:11:50.642Z,2.10
2023-11-04T11:14:17.902Z,1.93
2023-11-04T11:16:45.354Z,2.03
2023-11-04T11:19:13.085Z,2.00
2023-11-04T11:21:50.465Z,1.80
2023-11-04T11:24:21.558Z,1.90
2023-11-04T11:26:52.955Z,2.20
2023-11-04T11:29:20.817Z,2.10
2023-11-04T11:31:48.382Z,2.13
2023-11-04T11:34:15.693Z,1.87
2023-11-04T11:36:46.634Z,1.83
2023-11-04T11:39:14.684Z,1.40
2023-11-04T11:41:44.704Z,1.87
2023-11-04T11:44:15.763Z,1.70
2023-11-04T11:46:44.225Z,1.53
2023-11-04T11:49:12.039Z,1.57
2023-11-04T11:51:39.224Z,2.17
2023-11-04T11:54:06.637Z,2.17
2023-11-04T11:56:33.798Z,2.40
2023-11-04T11:59:07.013Z,1.80
2023-11-04T12:01:34.962Z,1.70
2023-11-04T12:04:03.109Z,1.90
2023-11-04T12:06:33.566Z,1.70
2023-11-04T12:09:00.839Z,1.17
2023-11-04T12:11:29.587Z,1.70
2023-11-04T12:13:59.431Z,1.20
2023-11-04T12:16:28.321Z,1.20
2023-11-04T12:18:55.569Z,1.20
2023-11-04T12:21:22.778Z,1.00
2023-11-04T12:23:51.075Z,1.10
2023-11-04T12:26:18.308Z,1.10
2023-11-04T12:28:45.828Z,1.00
2023-11-04T12:31:16.045Z,1.20
2023-11-04T12:33:45.570Z,1.10
2023-11-04T12:36:13.253Z,1.20
2023-11-04T12:38:45.936Z,1.27
2023-11-04T12:41:14.893Z,1.07
2023-11-04T12:43:44.341Z,1.13
2023-11-04T12:46:12.442Z,1.27
2023-11-04T12:48:39.770Z,1.00
2023-11-04T12:51:07.368Z,1.17
2023-11-04T12:53:37.425Z,1.17
2023-11-04T12:56:04.744Z,1.30
2023-11-04T12:58:32.837Z,1.00
2023-11-04T13:01:00.870Z,0.90
2023-11-04T13:03:28.299Z,0.93
2023-11-04T13:05:55.828Z,0.80
2023-11-04T13:08:23.101Z,0.83
2023-11-04T13:10:50.280Z,0.80
2023-11-04T13:13:17.466Z,1.03
2023-11-04T13:15:45.170Z,0.93
2023-11-04T13:18:13.480Z,0.80
2023-11-04T13:20:40.751Z,0.80
2023-11-04T13:23:07.992Z,0.50
2023-11-04T13:25:35.920Z,0.77
2023-11-04T13:28:03.115Z,0.90
2023-11-04T13:30:31.676Z,0.63
2023-11-04T13:32:59.012Z,0.60
2023-11-04T13:35:26.791Z,0.60
2023-11-04T13:37:54.368Z,0.60
2023-11-04T13:40:22.604Z,0.70
2023-11-04T13:42:49.796Z,0.60
2023-11-04T13:45:17.649Z,0.60
2023-11-04T13:47:45.438Z,0.60
2023-11-04T13:50:12.716Z,0.80
2023-11-04T13:52:41.678Z,0.90
2023-11-04T13:55:10.014Z,0.60
2023-11-04T13:57:38.108Z,0.70
2023-11-04T14:00:05.781Z,0.50
2023-11-04T14:02:32.979Z,0.70
2023-11-04T14:05:01.922Z,0.67
2023-11-04T14:07:29.193Z,0.60
2023-11-04T14:09:57.192Z,0.50
2023-11-04T14:12:24.375Z,0.50
2023-11-04T14:14:52.976Z,0.70
2023-11-04T14:17:20.369Z,0.73
2023-11-04T14:19:47.640Z,0.57
2023-11-04T14:22:14.853Z,0.70
2023-11-04T14:24:42.439Z,0.70
2023-11-04T14:27:09.838Z,0.60
2023-11-04T14:29:36.902Z,0.80
2023-11-04T14:32:04.063Z,0.80
2023-11-04T14:34:31.476Z,1.00
2023-11-04T14:36:58.640Z,0.80
2023-11-04T14:39:25.785Z,0.67
2023-11-04T14:41:54.205Z,0.90
2023-11-04T14:44:22.120Z,0.70
2023-11-04T14:46:50.417Z,1.00
2023-11-04T14:49:18.046Z,0.90
2023-11-04T14:51:45.283Z,0.70
2023-11-04T14:54:12.411Z,0.70
2023-11-04T14:56:40.523Z,0.60
2023-11-04T14:59:07.742Z,0.70
2023-11-04T15:01:47.429Z,0.70
2023-11-04T15:04:15.158Z,0.70
2023-11-04T15:06:42.663Z,0.70
2023-11-04T15:09:10.207Z,0.60
2023-11-04T15:11:37.534Z,0.80
2023-11-04T15:14:04.781Z,0.80
2023-11-04T15:16:32.216Z,0.50
2023-11-04T15:19:00.116Z,1.00
2023-11-04T15:21:27.790Z,0.80
2023-11-04T15:23:55.618Z,1.20
2023-11-04T15:26:23.139Z,1.00
2023-11-04T15:28:50.929Z,1.00
2023-11-04T15:31:18.048Z,0.90
2023-11-04T15:33:45.253Z,0.90
2023-11-04T15:36:12.542Z,1.30
2023-11-04T15:38:39.675Z,1.10
2023-11-04T15:41:09.376Z,1.13
2023-11-04T15:43:36.681Z,1.10
2023-11-04T15:46:04.780Z,1.10
2023-11-04T15:48:32.191Z,1.10
2023-11-04T15:51:00.671Z,1.30
2023-11-04T15:53:27.856Z,1.13
2023-11-04T15:55:55.486Z,1.30
2023-11-04T15:58:22.840Z,1.03
2023-11-04T16:00:50.159Z,1.17
2023-11-04T16:03:17.396Z,1.10
2023-11-04T16:05:44.777Z,1.20
2023-11-04T16:08:12.216Z,1.27
2023-11-04T16:10:39.315Z,1.50
2023-11-04T16:13:07.668Z,1.40
2023-11-04T16:15:34.919Z,1.50
2023-11-04T16:18:02.430Z,1.33
2023-11-04T16:20:29.659Z,1.20
2023-11-04T16:22:56.895Z,1.20
2023-11-04T16:25:24.479Z,1.47
2023-11-04T16:27:51.649Z,1.70
2023-11-04T16:30:18.798Z,1.60
2023-11-04T16:32:46.966Z,2.00
2023-11-04T16:35:14.268Z,1.60
2023-11-04T16:37:41.390Z,1.80
2023-11-04T16:40:09.903Z,1.47
2023-11-04T16:42:37.068Z,1.63
2023-11-04T16:45:04.287Z,1.40
2023-11-04T16:47:31.482Z,1.40
2023-11-04T16:49:58.753Z,1.50
2023-11-04T16:52:25.852Z,1.67
2023-11-04T16:54:53.125Z,1.43
2023-11-04T16:57:20.268Z,1.50
2023-11-04T16:59:47.367Z,1.70
2023-11-04T17:02:14.566Z,1.50
2023-11-04T17:04:42.060Z,1.50
2023-11-04T17:07:09.286Z,1.20
2023-11-04T17:09:36.366Z,1.60
2023-11-04T17:12:03.582Z,1.10
2023-11-04T17:14:32.606Z,1.40
2023-11-04T17:17:00.058Z,1.30
2023-11-04T17:19:27.241Z,1.40
2023-11-04T17:21:55.028Z,1.37
2023-11-04T17:24:22.774Z,1.30
2023-11-04T17:26:49.864Z,1.10
2023-11-04T17:29:17.147Z,1.20
2023-11-04T17:31:44.449Z,1.13
2023-11-04T17:34:11.778Z,1.30
2023-11-04T17:36:38.984Z,1.57
2023-11-04T17:39:07.187Z,1.70
2023-11-04T17:41:34.344Z,1.60
2023-11-04T17:44:01.452Z,1.50
2023-11-04T17:46:28.632Z,1.67
2023-11-04T17:48:55.779Z,1.40
2023-11-04T17:51:23.269Z,1.30
2023-11-04T17:53:50.378Z,1.37
2023-11-04T17:56:17.526Z,1.40
2023-11-04T17:58:44.706Z,1.30
2023-11-04T18:01:14.753Z,1.43
2023-11-04T18:03:41.910Z,1.40
2023-11-04T18:06:09.175Z,1.20
2023-11-04T18:08:36.333Z,1.33
2023-11-04T18:11:03.587Z,1.50
2023-11-04T18:13:30.685Z,1.50
2023-11-04T18:15:58.234Z,1.20
2023-11-04T18:18:26.008Z,1.40
2023-11-04T18:20:53.304Z,1.50
2023-11-04T18:23:20.453Z,1.40
2023-11-04T18:25:47.520Z,1.40
2023-11-04T18:28:14.614Z,1.60
2023-11-04T18:30:41.722Z,1.60
2023-11-04T18:33:08.820Z,1.37
2023-11-04T18:35:35.946Z,1.40
2023-11-04T18:38:03.175Z,1.83
2023-11-04T18:40:30.315Z,1.50
2023-11-04T18:42:57.539Z,1.53
2023-11-04T18:45:24.635Z,1.40
2023-11-04T18:47:51.862Z,1.37
2023-11-04T18:50:19.001Z,1.37
2023-11-04T18:52:46.139Z,1.30
2023-11-04T18:55:13.432Z,1.23
2023-11-04T18:57:40.522Z,1.70
2023-11-04T19:00:08.282Z,1.60
2023-11-04T19:02:35.831Z,1.40
2023-11-04T19:05:05.281Z,1.17
2023-11-04T19:07:32.717Z,1.70
2023-11-04T19:10:01.676Z,1.43
2023-11-04T19:12:28.841Z,1.57
2023-11-04T19:14:56.170Z,1.30
2023-11-04T19:17:23.593Z,1.50
2023-11-04T19:19:51.252Z,1.20
2023-11-04T19:22:18.435Z,1.10
2023-11-04T19:24:45.546Z,1.40
2023-11-04T19:27:12.654Z,1.40
2023-11-04T19:29:39.732Z,1.17
2023-11-04T19:32:06.912Z,1.17
2023-11-04T19:34:33.998Z,1.40
2023-11-04T19:37:01.152Z,1.13
2023-11-04T19:39:28.262Z,1.47
2023-11-04T19:41:55.538Z,1.40
2023-11-04T19:44:22.651Z,1.30
2023-11-04T19:46:49.792Z,1.40
2023-11-04T19:49:16.933Z,1.43
2023-11-04T19:51:44.057Z,1.20
2023-11-04T19:54:11.168Z,1.30
2023-11-04T19:56:38.328Z,1.30
2023-11-04T19:59:05.456Z,1.50
2023-11-04T20:01:32.556Z,1.60
2023-11-04T20:04:01.211Z,1.53
2023-11-04T20:06:28.559Z,1.37
2023-11-04T20:08:55.707Z,1.40
2023-11-04T20:11:23.556Z,1.60
2023-11-04T20:13:53.952Z,1.33
2023-11-04T20:16:21.077Z,1.37
2023-11-04T20:18:48.366Z,1.60
2023-11-04T20:21:15.612Z,1.57
2023-11-04T20:23:43.076Z,1.50
2023-11-04T20:26:10.181Z,1.43
2023-11-04T20:28:37.260Z,1.50
2023-11-04T20:31:04.501Z,1.60
2023-11-04T20:33:31.673Z,1.43
2023-11-04T20:35:58.764Z,1.40
2023-11-04T20:38:25.836Z,1.27
2023-11-04T20:40:52.932Z,1.23
2023-11-04T20:43:20.159Z,1.30
2023-11-04T20:45:47.293Z,1.13
2023-11-04T20:48:14.531Z,1.37
2023-11-04T20:50:41.712Z,1.17
2023-11-04T20:53:08.824Z,1.40
2023-11-04T20:55:35.942Z,1.10
2023-11-04T20:58:03.144Z,1.40
2023-11-04T21:00:30.611Z,1.20
2023-11-04T21:02:57.906Z,1.10
2023-11-04T21:05:25.108Z,1.20
2023-11-04T21:07:52.249Z,1.20
2023-11-04T21:10:19.476Z,1.07
2023-11-04T21:12:46.659Z,1.00
2023-11-04T21:15:13.939Z,1.00
2023-11-04T21:17:41.083Z,1.10
2023-11-04T21:20:13.438Z,1.20
2023-11-04T21:22:40.603Z,1.00
2023-11-04T21:25:11.236Z,1.10
2023-11-04T21:27:38.977Z,1.10
2023-11-04T21:30:07.354Z,1.17
2023-11-04T21:32:35.068Z,1.10
2023-11-04T21:35:02.273Z,1.13
2023-11-04T21:37:29.459Z,1.00
2023-11-04T21:39:56.618Z,1.40
2023-11-04T21:42:23.738Z,1.07
2023-11-04T21:44:50.994Z,0.90
2023-11-04T21:47:18.211Z,1.13
2023-11-04T21:49:45.314Z,1.33
2023-11-04T21:52:12.715Z,1.17
2023-11-04T21:54:39.913Z,1.00
2023-11-04T21:57:07.025Z,0.97
2023-11-04T21:59:34.132Z,0.90
2023-11-04T22:02:01.355Z,1.13
2023-11-04T22:04:28.609Z,1.10
2023-11-04T22:06:56.492Z,1.17
2023-11-04T22:09:23.787Z,1.03
2023-11-04T22:11:51.223Z,1.00
2023-11-04T22:14:18.342Z,1.20
2023-11-04T22:16:45.505Z,1.00
2023-11-04T22:19:12.764Z,0.97
2023-11-04T22:21:39.955Z,1.30
2023-11-04T22:24:07.231Z,1.20
2023-11-04T22:26:36.433Z,1.20
2023-11-04T22:29:03.576Z,1.37
2023-11-04T22:31:30.822Z,1.20
2023-11-04T22:33:58.129Z,1.27
2023-11-04T22:36:28.342Z,1.20
2023-11-04T22:38:55.484Z,1.10
2023-11-04T22:41:22.700Z,1.10
2023-11-04T22:43:49.913Z,1.20
2023-11-04T22:46:17.569Z,1.10
2023-11-04T22:48:44.770Z,1.20
2023-11-04T22:51:12.865Z,1.30
2023-11-04T22:53:40.158Z,1.20
2023-11-04T22:56:07.470Z,1.20
2023-11-04T22:58:34.612Z,1.20
2023-11-04T23:01:01.886Z,1.20
2023-11-04T23:03:29.069Z,1.20
2023-11-04T23:05:56.419Z,1.40
2023-11-04T23:08:23.616Z,1.20
2023-11-04T23:10:51.278Z,1.00
2023-11-04T23:13:20.434Z,1.30
2023-11-04T23:15:47.683Z,1.30
2023-11-04T23:18:14.822Z,1.00
2023-11-04T23:20:42.013Z,1.20
2023-11-04T23:23:09.172Z,1.30
2023-11-04T23:25:36.683Z,1.20
2023-11-04T23:28:04.047Z,1.20
2023-11-04T23:30:31.165Z,1.30
2023-11-04T23:32:58.415Z,1.30
2023-11-04T23:35:25.512Z,1.07
2023-11-04T23:37:52.663Z,1.00
2023-11-04T23:40:20.005Z,1.13
2023-11-04T23:42:47.157Z,1.10
2023-11-04T23:45:14.312Z,1.00
2023-11-04T23:47:41.880Z,1.23
2023-11-04T23:50:09.501Z,1.10
2023-11-04T23:52:36.667Z,1.20
2023-11-04T23:55:04.107Z,1.10
2023-11-04T23:57:31.206Z,1.03
2023-11-04T23:59:58.296Z,0.87
